Station: EBSP - 13/05/2021 20:21Z (il y a 23 minutes)
EBSP 132020Z AUTO 20002KT CAVOK 06/06 Q1008
Vent du 200º - 2 kt
Visibilité > 10 km et plafond haut ou pas de nuages significatifs
Température: +06ºC - Point de rosée: +06ºC - QNH: 1008 hPa